Appleton, New York
Current Conditions -  °F | °C
As of 3:53 PM on Thursday 20 Nov 2014 (Local Time) from KIAG Reporting Station
Scattered Clouds Scattered Clouds  
Wind Chill: 14°   Ceiling: Unl
Heat Index: 26°   Visibility: 10mi
Dew Point: 12°   Wind: 16mph
Humidity: 55%   Direction: 260°W
Pressure: 29.85"   Gusts: 29mph
Location:  43.33°N, 78.65°W
Report Text: KIAG 202053Z 26014G25KT 10SM FEW035 SCT080 M03/M11 A2985 RMK AO2 PK WND 29028/2027 SLP124 T10331111 53010
Loading
Personal Weather Stations






























Interactive Weather Map New forecast layout! Learn more

10-Day Weather Forecast

Advertisements
Track Severe Weather on mobile